Leesburg International Airport Leesburg US
ICAO: KLEE
IATA: LEE
Category: Medium
Scheduled Services: No

Elevation: 76 ft
TransAlt. 18000 ft.

Airport Communications:
ORLANDO APP/DEP:121.1
ASOS:134.325
CTAF/UNICOM:122.725

KLEE Zoom In..

Runways:

(A) RW 03 length 4957 ft width 100 ft
---- / hdg 40

(B) RW 13 length 6300 ft width 100 ft
---- / hdg 135

(C) RW 21 length 4957 ft width 100 ft
---- / hdg 220

(D) RW 31 length 6300 ft width 100 ft
---- / hdg 315

Location; KLEE
Day. 26 / Time. 13.53 Zulu
* Altimeter: 29.99
* Temperature: 26° c. 78.8°f.
* Wind from: 120° Speed 07 kn.
Dewpoint: 23° c.
Visibility: 10 Statute Miles.
Clouds: Few 2200 ft.

KLEE 261353Z 12007KT 10SM FEW022 26/23 A2999 RMK AO2 SLP155 T02610228


Wind From 120°
Speed 07 kn.

 
 
jpsmedia.com for Web Design SOUNDCLOUD worldairports.se 2018   terms of use